sensor_id;sensor_type;location;lat;lon;timestamp;P1;durP1;ratioP1;P2;durP2;ratioP2
16880;SDS011;8557;52.068;5.198;2023-03-12T00:02:26;11.02;;;7.53;;
16880;SDS011;8557;52.068;5.198;2023-03-12T00:04:53;9.07;;;6.90;;
16880;SDS011;8557;52.068;5.198;2023-03-12T00:07:20;9.77;;;7.18;;
16880;SDS011;8557;52.068;5.198;2023-03-12T00:09:47;10.07;;;7.25;;
16880;SDS011;8557;52.068;5.198;2023-03-12T00:12:15;9.95;;;6.88;;
16880;SDS011;8557;52.068;5.198;2023-03-12T00:14:42;10.57;;;6.78;;
16880;SDS011;8557;52.068;5.198;2023-03-12T00:17:09;11.98;;;6.72;;
16880;SDS011;8557;52.068;5.198;2023-03-12T00:19:36;10.38;;;6.72;;
16880;SDS011;8557;52.068;5.198;2023-03-12T00:22:03;8.02;;;6.00;;
16880;SDS011;8557;52.068;5.198;2023-03-12T00:24:30;7.93;;;6.20;;
16880;SDS011;8557;52.068;5.198;2023-03-12T00:26:57;7.43;;;5.97;;
16880;SDS011;8557;52.068;5.198;2023-03-12T00:29:25;8.75;;;6.13;;
16880;SDS011;8557;52.068;5.198;2023-03-12T00:31:52;12.93;;;6.68;;
16880;SDS011;8557;52.068;5.198;2023-03-12T00:34:19;9.45;;;6.68;;
16880;SDS011;8557;52.068;5.198;2023-03-12T00:36:46;9.70;;;6.05;;
16880;SDS011;8557;52.068;5.198;2023-03-12T00:39:12;8.73;;;6.72;;
16880;SDS011;8557;52.068;5.198;2023-03-12T00:41:39;9.60;;;6.78;;
16880;SDS011;8557;52.068;5.198;2023-03-12T00:44:06;7.72;;;5.82;;
16880;SDS011;8557;52.068;5.198;2023-03-12T00:46:34;9.43;;;5.90;;
16880;SDS011;8557;52.068;5.198;2023-03-12T00:49:01;9.80;;;6.28;;
16880;SDS011;8557;52.068;5.198;2023-03-12T00:51:28;8.52;;;6.43;;
16880;SDS011;8557;52.068;5.198;2023-03-12T00:53:54;9.50;;;6.15;;
16880;SDS011;8557;52.068;5.198;2023-03-12T00:56:21;12.05;;;5.63;;
16880;SDS011;8557;52.068;5.198;2023-03-12T00:58:48;9.35;;;5.93;;
16880;SDS011;8557;52.068;5.198;2023-03-12T01:01:15;10.77;;;5.65;;
16880;SDS011;8557;52.068;5.198;2023-03-12T01:03:43;7.63;;;5.68;;
16880;SDS011;8557;52.068;5.198;2023-03-12T01:06:10;7.45;;;5.60;;
16880;SDS011;8557;52.068;5.198;2023-03-12T01:08:38;8.63;;;5.63;;
16880;SDS011;8557;52.068;5.198;2023-03-12T01:11:05;8.05;;;5.93;;
16880;SDS011;8557;52.068;5.198;2023-03-12T01:13:32;8.23;;;5.25;;
16880;SDS011;8557;52.068;5.198;2023-03-12T01:15:58;8.77;;;5.85;;
16880;SDS011;8557;52.068;5.198;2023-03-12T01:18:25;5.68;;;5.00;;
16880;SDS011;8557;52.068;5.198;2023-03-12T01:20:53;7.88;;;5.22;;
16880;SDS011;8557;52.068;5.198;2023-03-12T01:23:20;9.05;;;5.85;;
16880;SDS011;8557;52.068;5.198;2023-03-12T01:25:47;8.80;;;5.35;;
16880;SDS011;8557;52.068;5.198;2023-03-12T01:28:15;7.78;;;4.95;;
16880;SDS011;8557;52.068;5.198;2023-03-12T01:30:42;8.48;;;5.38;;
16880;SDS011;8557;52.068;5.198;2023-03-12T01:33:09;7.35;;;4.90;;
16880;SDS011;8557;52.068;5.198;2023-03-12T01:35:36;8.30;;;5.57;;
16880;SDS011;8557;52.068;5.198;2023-03-12T01:38:05;6.47;;;5.05;;
16880;SDS011;8557;52.068;5.198;2023-03-12T01:40:33;8.80;;;5.63;;
16880;SDS011;8557;52.068;5.198;2023-03-12T01:43:14;7.22;;;5.43;;
16880;SDS011;8557;52.068;5.198;2023-03-12T01:48:53;7.45;;;5.07;;
16880;SDS011;8557;52.068;5.198;2023-03-12T01:51:23;5.65;;;5.05;;
16880;SDS011;8557;52.068;5.198;2023-03-12T01:53:54;9.55;;;4.97;;
16880;SDS011;8557;52.068;5.198;2023-03-12T01:56:23;5.50;;;4.60;;
16880;SDS011;8557;52.068;5.198;2023-03-12T01:58:53;10.80;;;5.25;;
16880;SDS011;8557;52.068;5.198;2023-03-12T02:01:23;10.45;;;5.13;;
16880;SDS011;8557;52.068;5.198;2023-03-12T02:03:51;6.03;;;4.80;;
16880;SDS011;8557;52.068;5.198;2023-03-12T02:06:22;5.15;;;4.50;;
16880;SDS011;8557;52.068;5.198;2023-03-12T02:08:55;7.85;;;4.63;;
16880;SDS011;8557;52.068;5.198;2023-03-12T02:11:24;7.15;;;5.00;;
16880;SDS011;8557;52.068;5.198;2023-03-12T02:13:51;6.35;;;5.10;;
16880;SDS011;8557;52.068;5.198;2023-03-12T02:16:17;8.95;;;4.85;;
16880;SDS011;8557;52.068;5.198;2023-03-12T02:18:45;8.20;;;4.78;;
16880;SDS011;8557;52.068;5.198;2023-03-12T02:21:17;7.75;;;4.40;;
16880;SDS011;8557;52.068;5.198;2023-03-12T02:23:49;6.00;;;4.60;;
16880;SDS011;8557;52.068;5.198;2023-03-12T02:26:22;9.00;;;4.82;;
16880;SDS011;8557;52.068;5.198;2023-03-12T02:28:49;5.03;;;4.10;;
16880;SDS011;8557;52.068;5.198;2023-03-12T02:31:17;7.13;;;4.57;;
16880;SDS011;8557;52.068;5.198;2023-03-12T02:33:45;4.78;;;4.22;;
16880;SDS011;8557;52.068;5.198;2023-03-12T02:36:12;6.05;;;4.32;;
16880;SDS011;8557;52.068;5.198;2023-03-12T02:38:40;7.82;;;4.63;;
16880;SDS011;8557;52.068;5.198;2023-03-12T02:41:13;7.78;;;4.47;;
16880;SDS011;8557;52.068;5.198;2023-03-12T02:43:45;7.28;;;4.57;;
16880;SDS011;8557;52.068;5.198;2023-03-12T02:46:14;6.93;;;4.28;;
16880;SDS011;8557;52.068;5.198;2023-03-12T02:48:41;5.28;;;4.50;;
16880;SDS011;8557;52.068;5.198;2023-03-12T02:51:08;6.90;;;4.45;;
16880;SDS011;8557;52.068;5.198;2023-03-12T02:53:35;4.93;;;4.15;;
16880;SDS011;8557;52.068;5.198;2023-03-12T02:56:02;5.10;;;4.00;;
16880;SDS011;8557;52.068;5.198;2023-03-12T02:58:29;6.53;;;4.40;;
16880;SDS011;8557;52.068;5.198;2023-03-12T03:00:58;6.90;;;4.55;;
16880;SDS011;8557;52.068;5.198;2023-03-12T03:03:24;9.95;;;4.38;;
16880;SDS011;8557;52.068;5.198;2023-03-12T03:05:51;9.02;;;4.75;;
16880;SDS011;8557;52.068;5.198;2023-03-12T03:08:18;6.30;;;4.13;;
16880;SDS011;8557;52.068;5.198;2023-03-12T03:10:45;5.90;;;4.30;;
16880;SDS011;8557;52.068;5.198;2023-03-12T03:13:12;12.82;;;4.53;;
16880;SDS011;8557;52.068;5.198;2023-03-12T03:15:39;5.40;;;4.32;;
16880;SDS011;8557;52.068;5.198;2023-03-12T03:18:07;7.00;;;4.32;;
16880;SDS011;8557;52.068;5.198;2023-03-12T03:20:33;8.80;;;4.32;;
16880;SDS011;8557;52.068;5.198;2023-03-12T03:23:00;9.63;;;4.60;;
16880;SDS011;8557;52.068;5.198;2023-03-12T03:25:28;5.30;;;4.30;;
16880;SDS011;8557;52.068;5.198;2023-03-12T03:27:55;6.60;;;4.22;;
16880;SDS011;8557;52.068;5.198;2023-03-12T03:30:22;7.13;;;4.25;;
16880;SDS011;8557;52.068;5.198;2023-03-12T03:32:49;9.13;;;4.40;;
16880;SDS011;8557;52.068;5.198;2023-03-12T03:35:17;7.07;;;4.75;;
16880;SDS011;8557;52.068;5.198;2023-03-12T03:37:46;10.88;;;4.97;;
16880;SDS011;8557;52.068;5.198;2023-03-12T03:40:13;7.28;;;4.55;;
16880;SDS011;8557;52.068;5.198;2023-03-12T03:42:39;8.32;;;5.43;;
16880;SDS011;8557;52.068;5.198;2023-03-12T03:45:06;6.60;;;4.68;;
16880;SDS011;8557;52.068;5.198;2023-03-12T03:47:35;8.10;;;4.65;;
16880;SDS011;8557;52.068;5.198;2023-03-12T03:50:02;8.40;;;4.88;;
16880;SDS011;8557;52.068;5.198;2023-03-12T03:52:31;13.18;;;4.60;;
16880;SDS011;8557;52.068;5.198;2023-03-12T03:54:58;6.03;;;4.90;;
16880;SDS011;8557;52.068;5.198;2023-03-12T03:57:25;8.23;;;4.97;;
16880;SDS011;8557;52.068;5.198;2023-03-12T03:59:53;7.30;;;4.90;;
16880;SDS011;8557;52.068;5.198;2023-03-12T04:02:20;5.97;;;4.32;;
16880;SDS011;8557;52.068;5.198;2023-03-12T04:04:47;11.68;;;5.32;;
16880;SDS011;8557;52.068;5.198;2023-03-12T04:07:14;5.03;;;4.38;;
16880;SDS011;8557;52.068;5.198;2023-03-12T04:09:43;6.28;;;4.35;;
16880;SDS011;8557;52.068;5.198;2023-03-12T04:12:13;6.13;;;4.57;;
16880;SDS011;8557;52.068;5.198;2023-03-12T04:14:40;6.18;;;4.50;;
16880;SDS011;8557;52.068;5.198;2023-03-12T04:17:07;7.63;;;4.85;;
16880;SDS011;8557;52.068;5.198;2023-03-12T04:19:34;6.57;;;4.78;;
16880;SDS011;8557;52.068;5.198;2023-03-12T04:22:01;5.25;;;4.72;;
16880;SDS011;8557;52.068;5.198;2023-03-12T04:24:28;6.50;;;4.97;;
16880;SDS011;8557;52.068;5.198;2023-03-12T04:26:56;8.57;;;4.78;;
16880;SDS011;8557;52.068;5.198;2023-03-12T04:29:24;8.98;;;4.65;;
16880;SDS011;8557;52.068;5.198;2023-03-12T04:31:51;7.80;;;4.57;;
16880;SDS011;8557;52.068;5.198;2023-03-12T04:34:19;5.22;;;4.50;;
16880;SDS011;8557;52.068;5.198;2023-03-12T04:36:52;9.68;;;4.65;;
16880;SDS011;8557;52.068;5.198;2023-03-12T04:39:19;6.22;;;4.70;;
16880;SDS011;8557;52.068;5.198;2023-03-12T04:41:46;8.90;;;4.80;;
16880;SDS011;8557;52.068;5.198;2023-03-12T04:44:14;7.65;;;4.90;;
16880;SDS011;8557;52.068;5.198;2023-03-12T04:46:41;9.70;;;5.32;;
16880;SDS011;8557;52.068;5.198;2023-03-12T04:49:08;12.20;;;5.30;;
16880;SDS011;8557;52.068;5.198;2023-03-12T04:51:35;9.68;;;4.95;;
16880;SDS011;8557;52.068;5.198;2023-03-12T04:54:02;6.75;;;5.20;;
16880;SDS011;8557;52.068;5.198;2023-03-12T04:56:29;7.88;;;5.00;;
16880;SDS011;8557;52.068;5.198;2023-03-12T04:58:56;8.25;;;5.97;;
16880;SDS011;8557;52.068;5.198;2023-03-12T05:01:25;7.60;;;5.50;;
16880;SDS011;8557;52.068;5.198;2023-03-12T05:03:53;9.90;;;5.38;;
16880;SDS011;8557;52.068;5.198;2023-03-12T05:06:21;8.27;;;5.47;;
16880;SDS011;8557;52.068;5.198;2023-03-12T05:08:49;6.82;;;5.40;;
16880;SDS011;8557;52.068;5.198;2023-03-12T05:11:16;9.43;;;5.30;;
16880;SDS011;8557;52.068;5.198;2023-03-12T05:13:44;8.80;;;4.82;;
16880;SDS011;8557;52.068;5.198;2023-03-12T05:16:11;5.80;;;4.57;;
16880;SDS011;8557;52.068;5.198;2023-03-12T05:18:41;9.35;;;5.07;;
16880;SDS011;8557;52.068;5.198;2023-03-12T05:21:10;10.40;;;5.10;;
16880;SDS011;8557;52.068;5.198;2023-03-12T05:23:38;8.07;;;4.68;;
16880;SDS011;8557;52.068;5.198;2023-03-12T05:26:06;6.72;;;5.60;;
16880;SDS011;8557;52.068;5.198;2023-03-12T05:28:40;8.82;;;4.78;;
16880;SDS011;8557;52.068;5.198;2023-03-12T05:31:07;6.13;;;5.00;;
16880;SDS011;8557;52.068;5.198;2023-03-12T05:33:36;6.90;;;5.30;;
16880;SDS011;8557;52.068;5.198;2023-03-12T05:36:04;8.55;;;5.10;;
16880;SDS011;8557;52.068;5.198;2023-03-12T05:38:31;9.02;;;5.88;;
16880;SDS011;8557;52.068;5.198;2023-03-12T05:40:58;8.02;;;5.05;;
16880;SDS011;8557;52.068;5.198;2023-03-12T05:43:25;5.65;;;5.05;;
16880;SDS011;8557;52.068;5.198;2023-03-12T05:45:53;11.70;;;5.35;;
16880;SDS011;8557;52.068;5.198;2023-03-12T05:48:23;5.95;;;5.00;;
16880;SDS011;8557;52.068;5.198;2023-03-12T05:50:50;8.75;;;6.03;;
16880;SDS011;8557;52.068;5.198;2023-03-12T05:53:18;7.55;;;4.82;;
16880;SDS011;8557;52.068;5.198;2023-03-12T05:55:45;6.82;;;4.78;;
16880;SDS011;8557;52.068;5.198;2023-03-12T05:58:12;8.10;;;4.55;;
16880;SDS011;8557;52.068;5.198;2023-03-12T06:00:39;9.10;;;4.93;;
16880;SDS011;8557;52.068;5.198;2023-03-12T06:03:06;7.90;;;5.20;;
16880;SDS011;8557;52.068;5.198;2023-03-12T06:05:34;6.68;;;5.10;;
16880;SDS011;8557;52.068;5.198;2023-03-12T06:08:01;6.43;;;4.78;;
16880;SDS011;8557;52.068;5.198;2023-03-12T06:10:30;7.03;;;5.30;;
16880;SDS011;8557;52.068;5.198;2023-03-12T06:12:57;7.65;;;6.00;;
16880;SDS011;8557;52.068;5.198;2023-03-12T06:15:24;8.07;;;5.78;;
16880;SDS011;8557;52.068;5.198;2023-03-12T06:17:51;9.13;;;5.65;;
16880;SDS011;8557;52.068;5.198;2023-03-12T06:20:18;7.97;;;5.88;;
16880;SDS011;8557;52.068;5.198;2023-03-12T06:22:45;11.40;;;6.40;;
16880;SDS011;8557;52.068;5.198;2023-03-12T06:25:11;8.63;;;6.68;;
16880;SDS011;8557;52.068;5.198;2023-03-12T06:27:40;7.05;;;5.93;;
16880;SDS011;8557;52.068;5.198;2023-03-12T06:30:07;8.20;;;6.38;;
16880;SDS011;8557;52.068;5.198;2023-03-12T06:32:34;9.13;;;6.25;;
16880;SDS011;8557;52.068;5.198;2023-03-12T06:35:01;9.88;;;6.80;;
16880;SDS011;8557;52.068;5.198;2023-03-12T06:37:28;9.77;;;6.40;;
16880;SDS011;8557;52.068;5.198;2023-03-12T06:39:56;10.25;;;7.85;;
16880;SDS011;8557;52.068;5.198;2023-03-12T06:42:23;10.68;;;7.30;;
16880;SDS011;8557;52.068;5.198;2023-03-12T06:44:52;9.00;;;7.55;;
16880;SDS011;8557;52.068;5.198;2023-03-12T06:47:19;13.20;;;7.80;;
16880;SDS011;8557;52.068;5.198;2023-03-12T06:49:46;13.93;;;8.07;;
16880;SDS011;8557;52.068;5.198;2023-03-12T06:52:12;13.98;;;8.32;;
16880;SDS011;8557;52.068;5.198;2023-03-12T06:54:39;18.25;;;8.90;;
16880;SDS011;8557;52.068;5.198;2023-03-12T06:57:06;18.02;;;9.38;;
16880;SDS011;8557;52.068;5.198;2023-03-12T06:59:33;14.13;;;9.20;;
16880;SDS011;8557;52.068;5.198;2023-03-12T07:02:01;13.40;;;9.55;;
16880;SDS011;8557;52.068;5.198;2023-03-12T07:04:28;15.30;;;9.77;;
16880;SDS011;8557;52.068;5.198;2023-03-12T07:06:55;14.80;;;10.18;;
16880;SDS011;8557;52.068;5.198;2023-03-12T07:09:22;15.63;;;9.77;;
16880;SDS011;8557;52.068;5.198;2023-03-12T07:11:48;19.05;;;11.27;;
16880;SDS011;8557;52.068;5.198;2023-03-12T07:14:15;16.02;;;10.10;;
16880;SDS011;8557;52.068;5.198;2023-03-12T07:16:44;16.75;;;10.65;;
16880;SDS011;8557;52.068;5.198;2023-03-12T07:19:12;20.20;;;10.90;;
16880;SDS011;8557;52.068;5.198;2023-03-12T07:21:39;18.85;;;11.48;;
16880;SDS011;8557;52.068;5.198;2023-03-12T07:24:06;17.35;;;11.27;;
16880;SDS011;8557;52.068;5.198;2023-03-12T07:26:33;19.30;;;11.77;;
16880;SDS011;8557;52.068;5.198;2023-03-12T07:29:00;15.82;;;11.45;;
16880;SDS011;8557;52.068;5.198;2023-03-12T07:31:27;15.43;;;11.48;;
16880;SDS011;8557;52.068;5.198;2023-03-12T07:33:54;17.77;;;12.05;;
16880;SDS011;8557;52.068;5.198;2023-03-12T07:36:22;18.02;;;12.07;;
16880;SDS011;8557;52.068;5.198;2023-03-12T07:38:49;17.40;;;12.23;;
16880;SDS011;8557;52.068;5.198;2023-03-12T07:41:16;20.48;;;12.57;;
16880;SDS011;8557;52.068;5.198;2023-03-12T07:43:43;24.35;;;13.52;;
16880;SDS011;8557;52.068;5.198;2023-03-12T07:46:09;21.25;;;13.52;;
16880;SDS011;8557;52.068;5.198;2023-03-12T07:48:36;19.00;;;13.95;;
16880;SDS011;8557;52.068;5.198;2023-03-12T07:51:03;21.17;;;12.90;;
16880;SDS011;8557;52.068;5.198;2023-03-12T07:53:32;17.77;;;13.45;;
16880;SDS011;8557;52.068;5.198;2023-03-12T07:55:59;22.70;;;13.63;;
16880;SDS011;8557;52.068;5.198;2023-03-12T07:58:26;23.10;;;15.45;;
16880;SDS011;8557;52.068;5.198;2023-03-12T08:00:53;18.95;;;14.07;;
16880;SDS011;8557;52.068;5.198;2023-03-12T08:03:20;26.35;;;16.02;;
16880;SDS011;8557;52.068;5.198;2023-03-12T08:05:54;21.83;;;13.80;;
16880;SDS011;8557;52.068;5.198;2023-03-12T08:08:24;20.85;;;15.52;;
16880;SDS011;8557;52.068;5.198;2023-03-12T08:10:53;20.52;;;15.35;;
16880;SDS011;8557;52.068;5.198;2023-03-12T08:13:20;24.95;;;16.15;;
16880;SDS011;8557;52.068;5.198;2023-03-12T08:15:48;23.23;;;16.85;;
16880;SDS011;8557;52.068;5.198;2023-03-12T08:18:15;26.40;;;17.65;;
16880;SDS011;8557;52.068;5.198;2023-03-12T08:20:42;25.92;;;17.75;;
16880;SDS011;8557;52.068;5.198;2023-03-12T08:23:09;30.02;;;18.30;;
16880;SDS011;8557;52.068;5.198;2023-03-12T08:25:37;32.10;;;19.42;;
16880;SDS011;8557;52.068;5.198;2023-03-12T08:28:05;27.50;;;19.90;;
16880;SDS011;8557;52.068;5.198;2023-03-12T08:30:32;47.83;;;22.48;;
16880;SDS011;8557;52.068;5.198;2023-03-12T08:32:58;31.30;;;22.73;;
16880;SDS011;8557;52.068;5.198;2023-03-12T08:35:25;30.63;;;21.70;;
16880;SDS011;8557;52.068;5.198;2023-03-12T08:37:52;35.15;;;23.35;;
16880;SDS011;8557;52.068;5.198;2023-03-12T08:40:21;36.00;;;22.27;;
16880;SDS011;8557;52.068;5.198;2023-03-12T08:42:48;32.20;;;22.85;;
16880;SDS011;8557;52.068;5.198;2023-03-12T08:45:16;31.10;;;21.50;;
16880;SDS011;8557;52.068;5.198;2023-03-12T08:47:43;35.85;;;22.20;;
16880;SDS011;8557;52.068;5.198;2023-03-12T08:50:11;32.55;;;21.48;;
16880;SDS011;8557;52.068;5.198;2023-03-12T08:52:39;31.40;;;20.42;;
16880;SDS011;8557;52.068;5.198;2023-03-12T08:55:06;30.17;;;20.58;;
16880;SDS011;8557;52.068;5.198;2023-03-12T08:57:33;39.50;;;20.52;;
16880;SDS011;8557;52.068;5.198;2023-03-12T09:00:00;33.25;;;20.35;;
16880;SDS011;8557;52.068;5.198;2023-03-12T09:02:30;34.97;;;21.75;;
16880;SDS011;8557;52.068;5.198;2023-03-12T09:04:57;42.30;;;24.98;;
16880;SDS011;8557;52.068;5.198;2023-03-12T09:07:24;34.63;;;21.77;;
16880;SDS011;8557;52.068;5.198;2023-03-12T09:09:52;36.50;;;21.95;;
16880;SDS011;8557;52.068;5.198;2023-03-12T09:12:19;37.92;;;22.85;;
16880;SDS011;8557;52.068;5.198;2023-03-12T09:14:46;37.97;;;23.13;;
16880;SDS011;8557;52.068;5.198;2023-03-12T09:17:13;43.92;;;23.73;;
16880;SDS011;8557;52.068;5.198;2023-03-12T09:19:41;40.92;;;24.92;;
16880;SDS011;8557;52.068;5.198;2023-03-12T09:22:08;42.92;;;24.45;;
16880;SDS011;8557;52.068;5.198;2023-03-12T09:24:35;41.92;;;24.95;;
16880;SDS011;8557;52.068;5.198;2023-03-12T09:27:02;40.85;;;25.60;;
16880;SDS011;8557;52.068;5.198;2023-03-12T09:29:29;43.45;;;26.08;;
16880;SDS011;8557;52.068;5.198;2023-03-12T09:31:56;44.05;;;25.55;;
16880;SDS011;8557;52.068;5.198;2023-03-12T09:34:23;42.13;;;26.00;;
16880;SDS011;8557;52.068;5.198;2023-03-12T09:36:52;44.00;;;25.17;;
16880;SDS011;8557;52.068;5.198;2023-03-12T09:39:19;44.78;;;26.58;;
16880;SDS011;8557;52.068;5.198;2023-03-12T09:41:46;46.53;;;26.17;;
16880;SDS011;8557;52.068;5.198;2023-03-12T09:44:15;43.08;;;25.27;;
16880;SDS011;8557;52.068;5.198;2023-03-12T09:46:49;40.95;;;25.52;;
16880;SDS011;8557;52.068;5.198;2023-03-12T09:49:20;69.22;;;28.25;;
16880;SDS011;8557;52.068;5.198;2023-03-12T09:51:57;45.58;;;26.63;;
16880;SDS011;8557;52.068;5.198;2023-03-12T09:54:27;43.47;;;27.33;;
16880;SDS011;8557;52.068;5.198;2023-03-12T09:57:01;45.85;;;27.85;;
16880;SDS011;8557;52.068;5.198;2023-03-12T09:59:34;41.63;;;26.13;;
16880;SDS011;8557;52.068;5.198;2023-03-12T10:02:02;46.50;;;28.30;;
16880;SDS011;8557;52.068;5.198;2023-03-12T10:04:40;42.80;;;26.95;;
16880;SDS011;8557;52.068;5.198;2023-03-12T10:07:11;43.75;;;27.42;;
16880;SDS011;8557;52.068;5.198;2023-03-12T10:12:39;38.33;;;24.48;;
16880;SDS011;8557;52.068;5.198;2023-03-12T10:15:16;42.50;;;25.40;;
16880;SDS011;8557;52.068;5.198;2023-03-12T10:17:57;44.05;;;24.92;;
16880;SDS011;8557;52.068;5.198;2023-03-12T10:20:45;39.53;;;23.58;;
16880;SDS011;8557;52.068;5.198;2023-03-12T10:23:21;38.08;;;25.17;;
16880;SDS011;8557;52.068;5.198;2023-03-12T10:25:56;36.15;;;22.92;;
16880;SDS011;8557;52.068;5.198;2023-03-12T10:28:27;36.10;;;22.77;;
16880;SDS011;8557;52.068;5.198;2023-03-12T10:31:00;32.00;;;22.55;;
16880;SDS011;8557;52.068;5.198;2023-03-12T10:33:34;31.15;;;19.70;;
16880;SDS011;8557;52.068;5.198;2023-03-12T10:36:09;27.38;;;19.85;;
16880;SDS011;8557;52.068;5.198;2023-03-12T10:38:43;33.35;;;19.25;;
16880;SDS011;8557;52.068;5.198;2023-03-12T10:41:13;32.28;;;19.90;;
16880;SDS011;8557;52.068;5.198;2023-03-12T10:43:41;32.83;;;19.55;;
16880;SDS011;8557;52.068;5.198;2023-03-12T10:46:14;32.67;;;19.48;;
16880;SDS011;8557;52.068;5.198;2023-03-12T10:49:31;34.05;;;18.98;;
16880;SDS011;8557;52.068;5.198;2023-03-12T10:52:01;32.92;;;18.33;;
16880;SDS011;8557;52.068;5.198;2023-03-12T10:54:35;34.10;;;17.77;;
16880;SDS011;8557;52.068;5.198;2023-03-12T10:57:05;29.90;;;16.98;;
16880;SDS011;8557;52.068;5.198;2023-03-12T10:59:33;36.03;;;17.38;;
16880;SDS011;8557;52.068;5.198;2023-03-12T11:02:10;31.60;;;16.05;;
16880;SDS011;8557;52.068;5.198;2023-03-12T11:04:54;32.28;;;16.00;;
16880;SDS011;8557;52.068;5.198;2023-03-12T11:07:23;33.38;;;15.27;;
16880;SDS011;8557;52.068;5.198;2023-03-12T11:10:14;30.58;;;14.93;;
16880;SDS011;8557;52.068;5.198;2023-03-12T11:15:47;35.97;;;12.88;;
16880;SDS011;8557;52.068;5.198;2023-03-12T11:18:25;30.75;;;12.13;;
16880;SDS011;8557;52.068;5.198;2023-03-12T11:21:11;29.67;;;12.68;;
16880;SDS011;8557;52.068;5.198;2023-03-12T11:23:41;36.60;;;11.68;;
16880;SDS011;8557;52.068;5.198;2023-03-12T11:26:12;32.65;;;11.95;;
16880;SDS011;8557;52.068;5.198;2023-03-12T11:28:43;32.95;;;11.77;;
16880;SDS011;8557;52.068;5.198;2023-03-12T11:31:14;34.67;;;11.90;;
16880;SDS011;8557;52.068;5.198;2023-03-12T11:33:47;30.40;;;11.55;;
16880;SDS011;8557;52.068;5.198;2023-03-12T11:36:18;30.77;;;12.13;;
16880;SDS011;8557;52.068;5.198;2023-03-12T11:38:55;27.55;;;10.88;;
16880;SDS011;8557;52.068;5.198;2023-03-12T11:41:48;38.25;;;12.23;;
16880;SDS011;8557;52.068;5.198;2023-03-12T11:44:26;30.08;;;11.50;;
16880;SDS011;8557;52.068;5.198;2023-03-12T11:47:03;32.72;;;12.35;;
16880;SDS011;8557;52.068;5.198;2023-03-12T11:49:48;28.67;;;12.27;;
16880;SDS011;8557;52.068;5.198;2023-03-12T11:52:26;34.00;;;11.98;;
16880;SDS011;8557;52.068;5.198;2023-03-12T11:55:10;31.25;;;11.95;;
16880;SDS011;8557;52.068;5.198;2023-03-12T11:57:47;29.02;;;12.52;;
16880;SDS011;8557;52.068;5.198;2023-03-12T12:00:26;32.15;;;11.48;;
16880;SDS011;8557;52.068;5.198;2023-03-12T12:03:11;30.90;;;11.15;;
16880;SDS011;8557;52.068;5.198;2023-03-12T12:06:07;32.25;;;10.25;;
16880;SDS011;8557;52.068;5.198;2023-03-12T12:08:44;36.22;;;10.02;;
16880;SDS011;8557;52.068;5.198;2023-03-12T12:11:18;27.65;;;9.57;;
16880;SDS011;8557;52.068;5.198;2023-03-12T12:13:56;32.80;;;9.75;;
16880;SDS011;8557;52.068;5.198;2023-03-12T12:16:39;30.38;;;9.02;;
16880;SDS011;8557;52.068;5.198;2023-03-12T12:19:21;28.08;;;9.38;;
16880;SDS011;8557;52.068;5.198;2023-03-12T12:22:01;28.50;;;8.32;;
16880;SDS011;8557;52.068;5.198;2023-03-12T12:24:40;24.60;;;7.68;;
16880;SDS011;8557;52.068;5.198;2023-03-12T12:27:18;24.85;;;8.32;;
16880;SDS011;8557;52.068;5.198;2023-03-12T12:29:54;41.28;;;8.30;;
16880;SDS011;8557;52.068;5.198;2023-03-12T12:32:39;35.40;;;7.70;;
16880;SDS011;8557;52.068;5.198;2023-03-12T12:35:19;24.83;;;5.97;;
16880;SDS011;8557;52.068;5.198;2023-03-12T12:37:55;26.35;;;6.65;;
16880;SDS011;8557;52.068;5.198;2023-03-12T12:40:28;30.08;;;7.32;;
16880;SDS011;8557;52.068;5.198;2023-03-12T12:43:05;27.23;;;6.82;;
16880;SDS011;8557;52.068;5.198;2023-03-12T12:45:43;26.30;;;6.85;;
16880;SDS011;8557;52.068;5.198;2023-03-12T12:48:13;24.38;;;6.72;;
16880;SDS011;8557;52.068;5.198;2023-03-12T12:50:43;23.30;;;7.05;;
16880;SDS011;8557;52.068;5.198;2023-03-12T12:53:14;27.65;;;7.28;;
16880;SDS011;8557;52.068;5.198;2023-03-12T12:55:48;29.75;;;7.28;;
16880;SDS011;8557;52.068;5.198;2023-03-12T12:58:25;23.95;;;6.55;;
16880;SDS011;8557;52.068;5.198;2023-03-12T13:01:06;23.13;;;6.80;;
16880;SDS011;8557;52.068;5.198;2023-03-12T13:03:34;35.33;;;7.53;;
16880;SDS011;8557;52.068;5.198;2023-03-12T13:06:03;31.70;;;7.85;;
16880;SDS011;8557;52.068;5.198;2023-03-12T13:08:32;26.15;;;7.20;;
16880;SDS011;8557;52.068;5.198;2023-03-12T13:11:03;22.77;;;6.63;;
16880;SDS011;8557;52.068;5.198;2023-03-12T13:13:31;26.35;;;6.78;;
16880;SDS011;8557;52.068;5.198;2023-03-12T13:16:20;29.67;;;8.05;;
16880;SDS011;8557;52.068;5.198;2023-03-12T13:18:57;33.20;;;7.40;;
16880;SDS011;8557;52.068;5.198;2023-03-12T13:21:25;31.60;;;7.28;;
16880;SDS011;8557;52.068;5.198;2023-03-12T13:24:04;35.55;;;7.28;;
16880;SDS011;8557;52.068;5.198;2023-03-12T13:26:44;27.40;;;7.03;;
16880;SDS011;8557;52.068;5.198;2023-03-12T13:29:20;27.95;;;6.53;;
16880;SDS011;8557;52.068;5.198;2023-03-12T13:32:02;27.42;;;6.90;;
16880;SDS011;8557;52.068;5.198;2023-03-12T13:37:18;27.73;;;6.60;;
16880;SDS011;8557;52.068;5.198;2023-03-12T13:40:01;30.73;;;7.70;;
16880;SDS011;8557;52.068;5.198;2023-03-12T13:42:35;30.75;;;6.57;;
16880;SDS011;8557;52.068;5.198;2023-03-12T13:45:25;33.28;;;6.95;;
16880;SDS011;8557;52.068;5.198;2023-03-12T13:47:58;26.25;;;5.82;;
16880;SDS011;8557;52.068;5.198;2023-03-12T13:50:26;21.70;;;6.60;;
16880;SDS011;8557;52.068;5.198;2023-03-12T13:52:59;29.40;;;6.63;;
16880;SDS011;8557;52.068;5.198;2023-03-12T13:55:30;23.17;;;5.53;;
16880;SDS011;8557;52.068;5.198;2023-03-12T13:57:58;24.02;;;5.57;;
16880;SDS011;8557;52.068;5.198;2023-03-12T14:00:35;23.73;;;5.60;;
16880;SDS011;8557;52.068;5.198;2023-03-12T14:03:08;18.25;;;5.03;;
16880;SDS011;8557;52.068;5.198;2023-03-12T14:05:46;19.73;;;5.03;;
16880;SDS011;8557;52.068;5.198;2023-03-12T14:08:23;19.90;;;5.07;;
16880;SDS011;8557;52.068;5.198;2023-03-12T14:11:15;23.40;;;5.57;;
16880;SDS011;8557;52.068;5.198;2023-03-12T14:14:05;20.60;;;5.57;;
16880;SDS011;8557;52.068;5.198;2023-03-12T14:16:46;17.85;;;5.22;;
16880;SDS011;8557;52.068;5.198;2023-03-12T14:19:17;26.88;;;5.47;;
16880;SDS011;8557;52.068;5.198;2023-03-12T14:21:48;23.40;;;4.80;;
16880;SDS011;8557;52.068;5.198;2023-03-12T14:24:20;17.88;;;4.88;;
16880;SDS011;8557;52.068;5.198;2023-03-12T14:26:49;17.85;;;4.00;;
16880;SDS011;8557;52.068;5.198;2023-03-12T14:29:18;19.23;;;4.72;;
16880;SDS011;8557;52.068;5.198;2023-03-12T14:31:48;20.35;;;5.50;;
16880;SDS011;8557;52.068;5.198;2023-03-12T14:34:17;20.60;;;4.50;;
16880;SDS011;8557;52.068;5.198;2023-03-12T14:36:57;22.10;;;4.90;;
16880;SDS011;8557;52.068;5.198;2023-03-12T14:39:31;26.35;;;5.28;;
16880;SDS011;8557;52.068;5.198;2023-03-12T14:42:00;21.60;;;5.90;;
16880;SDS011;8557;52.068;5.198;2023-03-12T14:44:29;17.17;;;5.18;;
16880;SDS011;8557;52.068;5.198;2023-03-12T14:46:58;21.67;;;5.85;;
16880;SDS011;8557;52.068;5.198;2023-03-12T14:49:28;24.13;;;5.95;;
16880;SDS011;8557;52.068;5.198;2023-03-12T14:51:56;22.70;;;4.95;;
16880;SDS011;8557;52.068;5.198;2023-03-12T14:54:25;24.80;;;5.53;;
16880;SDS011;8557;52.068;5.198;2023-03-12T14:56:53;22.65;;;5.22;;
16880;SDS011;8557;52.068;5.198;2023-03-12T14:59:21;24.08;;;5.68;;
16880;SDS011;8557;52.068;5.198;2023-03-12T15:01:51;22.80;;;4.47;;
16880;SDS011;8557;52.068;5.198;2023-03-12T15:04:24;20.30;;;5.30;;
16880;SDS011;8557;52.068;5.198;2023-03-12T15:06:53;24.83;;;4.85;;
16880;SDS011;8557;52.068;5.198;2023-03-12T15:09:23;25.80;;;6.05;;
16880;SDS011;8557;52.068;5.198;2023-03-12T15:11:52;25.80;;;5.55;;
16880;SDS011;8557;52.068;5.198;2023-03-12T15:14:21;22.33;;;5.47;;
16880;SDS011;8557;52.068;5.198;2023-03-12T15:16:50;29.52;;;6.00;;
16880;SDS011;8557;52.068;5.198;2023-03-12T15:19:19;23.95;;;5.47;;